sensor_id;sensor_type;location;lat;lon;timestamp;P1;durP1;ratioP1;P2;durP2;ratioP2
18407;SDS011;9330;52.210;21.174;2023-08-20T00:02:24;16.10;;;14.70;;
18407;SDS011;9330;52.210;21.174;2023-08-20T00:04:55;16.50;;;15.00;;
18407;SDS011;9330;52.210;21.174;2023-08-20T00:07:23;16.50;;;15.10;;
18407;SDS011;9330;52.210;21.174;2023-08-20T00:09:50;15.55;;;14.15;;
18407;SDS011;9330;52.210;21.174;2023-08-20T00:12:17;16.00;;;14.60;;
18407;SDS011;9330;52.210;21.174;2023-08-20T00:14:56;16.17;;;14.57;;
18407;SDS011;9330;52.210;21.174;2023-08-20T00:17:30;16.30;;;14.77;;
18407;SDS011;9330;52.210;21.174;2023-08-20T00:19:58;15.35;;;13.93;;
18407;SDS011;9330;52.210;21.174;2023-08-20T00:22:25;15.63;;;14.15;;
18407;SDS011;9330;52.210;21.174;2023-08-20T00:24:53;16.75;;;14.98;;
18407;SDS011;9330;52.210;21.174;2023-08-20T00:27:20;15.48;;;14.07;;
18407;SDS011;9330;52.210;21.174;2023-08-20T00:29:47;16.77;;;15.07;;
18407;SDS011;9330;52.210;21.174;2023-08-20T00:32:18;15.70;;;14.30;;
18407;SDS011;9330;52.210;21.174;2023-08-20T00:34:44;15.90;;;14.50;;
18407;SDS011;9330;52.210;21.174;2023-08-20T00:37:11;15.10;;;13.80;;
18407;SDS011;9330;52.210;21.174;2023-08-20T00:39:38;15.18;;;13.93;;
18407;SDS011;9330;52.210;21.174;2023-08-20T00:42:05;16.42;;;14.98;;
18407;SDS011;9330;52.210;21.174;2023-08-20T00:44:32;15.52;;;14.15;;
18407;SDS011;9330;52.210;21.174;2023-08-20T00:46:59;15.48;;;14.18;;
18407;SDS011;9330;52.210;21.174;2023-08-20T00:49:29;15.35;;;14.00;;
18407;SDS011;9330;52.210;21.174;2023-08-20T00:51:57;16.02;;;14.55;;
18407;SDS011;9330;52.210;21.174;2023-08-20T00:54:24;16.30;;;14.68;;
18407;SDS011;9330;52.210;21.174;2023-08-20T00:56:53;16.40;;;15.00;;
18407;SDS011;9330;52.210;21.174;2023-08-20T00:59:21;16.60;;;15.10;;
18407;SDS011;9330;52.210;21.174;2023-08-20T01:01:49;16.10;;;14.70;;
18407;SDS011;9330;52.210;21.174;2023-08-20T01:04:16;16.48;;;14.98;;
18407;SDS011;9330;52.210;21.174;2023-08-20T01:06:46;15.77;;;14.27;;
18407;SDS011;9330;52.210;21.174;2023-08-20T01:09:25;16.05;;;14.55;;
18407;SDS011;9330;52.210;21.174;2023-08-20T01:12:03;15.48;;;14.13;;
18407;SDS011;9330;52.210;21.174;2023-08-20T01:14:32;15.75;;;14.27;;
18407;SDS011;9330;52.210;21.174;2023-08-20T01:16:59;16.85;;;15.25;;
18407;SDS011;9330;52.210;21.174;2023-08-20T01:19:26;16.25;;;14.75;;
18407;SDS011;9330;52.210;21.174;2023-08-20T01:22:03;16.25;;;14.75;;
18407;SDS011;9330;52.210;21.174;2023-08-20T01:24:47;15.68;;;14.10;;
18407;SDS011;9330;52.210;21.174;2023-08-20T01:27:32;15.88;;;14.43;;
18407;SDS011;9330;52.210;21.174;2023-08-20T01:30:11;15.45;;;14.15;;
18407;SDS011;9330;52.210;21.174;2023-08-20T01:32:38;15.88;;;14.38;;
18407;SDS011;9330;52.210;21.174;2023-08-20T01:35:07;14.82;;;13.43;;
18407;SDS011;9330;52.210;21.174;2023-08-20T01:37:38;14.85;;;13.43;;
18407;SDS011;9330;52.210;21.174;2023-08-20T01:40:06;15.95;;;14.48;;
18407;SDS011;9330;52.210;21.174;2023-08-20T01:42:35;16.15;;;14.65;;
18407;SDS011;9330;52.210;21.174;2023-08-20T01:45:03;15.95;;;14.35;;
18407;SDS011;9330;52.210;21.174;2023-08-20T01:47:32;15.57;;;14.27;;
18407;SDS011;9330;52.210;21.174;2023-08-20T01:49:59;15.68;;;14.30;;
18407;SDS011;9330;52.210;21.174;2023-08-20T01:52:26;15.30;;;13.88;;
18407;SDS011;9330;52.210;21.174;2023-08-20T01:54:54;14.98;;;13.68;;
18407;SDS011;9330;52.210;21.174;2023-08-20T01:57:21;15.75;;;14.25;;
18407;SDS011;9330;52.210;21.174;2023-08-20T01:59:48;14.88;;;13.57;;
18407;SDS011;9330;52.210;21.174;2023-08-20T02:02:14;14.75;;;13.55;;
18407;SDS011;9330;52.210;21.174;2023-08-20T02:04:43;16.38;;;14.60;;
18407;SDS011;9330;52.210;21.174;2023-08-20T02:07:09;16.25;;;14.00;;
18407;SDS011;9330;52.210;21.174;2023-08-20T02:09:36;16.08;;;14.45;;
18407;SDS011;9330;52.210;21.174;2023-08-20T02:12:03;15.95;;;14.57;;
18407;SDS011;9330;52.210;21.174;2023-08-20T02:14:31;16.35;;;14.68;;
18407;SDS011;9330;52.210;21.174;2023-08-20T02:16:59;16.40;;;14.88;;
18407;SDS011;9330;52.210;21.174;2023-08-20T02:19:26;14.25;;;13.05;;
18407;SDS011;9330;52.210;21.174;2023-08-20T02:21:55;15.35;;;14.05;;
18407;SDS011;9330;52.210;21.174;2023-08-20T02:24:22;15.30;;;13.90;;
18407;SDS011;9330;52.210;21.174;2023-08-20T02:26:49;15.75;;;13.88;;
18407;SDS011;9330;52.210;21.174;2023-08-20T02:29:15;17.02;;;15.48;;
18407;SDS011;9330;52.210;21.174;2023-08-20T02:31:42;15.48;;;14.18;;
18407;SDS011;9330;52.210;21.174;2023-08-20T02:34:09;15.93;;;14.45;;
18407;SDS011;9330;52.210;21.174;2023-08-20T02:36:36;16.95;;;15.45;;
18407;SDS011;9330;52.210;21.174;2023-08-20T02:39:05;16.52;;;15.02;;
18407;SDS011;9330;52.210;21.174;2023-08-20T02:41:32;16.77;;;15.18;;
18407;SDS011;9330;52.210;21.174;2023-08-20T02:44:01;16.30;;;14.85;;
18407;SDS011;9330;52.210;21.174;2023-08-20T02:46:28;16.23;;;14.82;;
18407;SDS011;9330;52.210;21.174;2023-08-20T02:48:55;15.85;;;14.45;;
18407;SDS011;9330;52.210;21.174;2023-08-20T02:51:22;16.60;;;15.05;;
18407;SDS011;9330;52.210;21.174;2023-08-20T02:53:49;16.55;;;15.10;;
18407;SDS011;9330;52.210;21.174;2023-08-20T02:56:17;17.33;;;15.52;;
18407;SDS011;9330;52.210;21.174;2023-08-20T02:58:44;16.98;;;15.48;;
18407;SDS011;9330;52.210;21.174;2023-08-20T03:01:17;16.25;;;14.65;;
18407;SDS011;9330;52.210;21.174;2023-08-20T03:03:45;15.57;;;14.20;;
18407;SDS011;9330;52.210;21.174;2023-08-20T03:06:11;16.63;;;15.00;;
18407;SDS011;9330;52.210;21.174;2023-08-20T03:08:38;16.83;;;15.23;;
18407;SDS011;9330;52.210;21.174;2023-08-20T03:11:05;16.23;;;14.73;;
18407;SDS011;9330;52.210;21.174;2023-08-20T03:13:33;16.52;;;15.02;;
18407;SDS011;9330;52.210;21.174;2023-08-20T03:16:00;16.20;;;14.65;;
18407;SDS011;9330;52.210;21.174;2023-08-20T03:18:28;16.33;;;14.65;;
18407;SDS011;9330;52.210;21.174;2023-08-20T03:20:55;15.32;;;14.02;;
18407;SDS011;9330;52.210;21.174;2023-08-20T03:23:22;15.80;;;14.40;;
18407;SDS011;9330;52.210;21.174;2023-08-20T03:25:49;15.50;;;14.00;;
18407;SDS011;9330;52.210;21.174;2023-08-20T03:28:17;15.50;;;14.30;;
18407;SDS011;9330;52.210;21.174;2023-08-20T03:30:46;15.07;;;13.73;;
18407;SDS011;9330;52.210;21.174;2023-08-20T03:33:13;16.23;;;14.73;;
18407;SDS011;9330;52.210;21.174;2023-08-20T03:35:42;14.95;;;13.60;;
18407;SDS011;9330;52.210;21.174;2023-08-20T03:38:08;16.15;;;14.75;;
18407;SDS011;9330;52.210;21.174;2023-08-20T03:40:35;16.55;;;15.05;;
18407;SDS011;9330;52.210;21.174;2023-08-20T03:43:02;15.93;;;14.43;;
18407;SDS011;9330;52.210;21.174;2023-08-20T03:45:29;15.25;;;13.95;;
18407;SDS011;9330;52.210;21.174;2023-08-20T03:47:58;16.00;;;14.52;;
18407;SDS011;9330;52.210;21.174;2023-08-20T03:50:28;16.77;;;15.07;;
18407;SDS011;9330;52.210;21.174;2023-08-20T03:52:55;16.33;;;14.73;;
18407;SDS011;9330;52.210;21.174;2023-08-20T03:55:22;15.15;;;13.68;;
18407;SDS011;9330;52.210;21.174;2023-08-20T03:57:49;16.17;;;14.75;;
18407;SDS011;9330;52.210;21.174;2023-08-20T04:00:18;16.30;;;14.80;;
18407;SDS011;9330;52.210;21.174;2023-08-20T04:02:48;15.38;;;14.07;;
18407;SDS011;9330;52.210;21.174;2023-08-20T04:05:16;16.15;;;14.75;;
18407;SDS011;9330;52.210;21.174;2023-08-20T04:07:45;15.40;;;14.10;;
18407;SDS011;9330;52.210;21.174;2023-08-20T04:10:12;15.55;;;14.20;;
18407;SDS011;9330;52.210;21.174;2023-08-20T04:12:39;15.95;;;14.43;;
18407;SDS011;9330;52.210;21.174;2023-08-20T04:15:06;15.05;;;13.73;;
18407;SDS011;9330;52.210;21.174;2023-08-20T04:17:33;15.55;;;14.25;;
18407;SDS011;9330;52.210;21.174;2023-08-20T04:20:00;16.25;;;14.82;;
18407;SDS011;9330;52.210;21.174;2023-08-20T04:22:29;15.05;;;13.82;;
18407;SDS011;9330;52.210;21.174;2023-08-20T04:24:56;15.32;;;13.95;;
18407;SDS011;9330;52.210;21.174;2023-08-20T04:27:23;15.00;;;13.70;;
18407;SDS011;9330;52.210;21.174;2023-08-20T04:29:50;16.25;;;14.95;;
18407;SDS011;9330;52.210;21.174;2023-08-20T04:32:16;15.57;;;14.18;;
18407;SDS011;9330;52.210;21.174;2023-08-20T04:34:43;15.20;;;13.90;;
18407;SDS011;9330;52.210;21.174;2023-08-20T04:37:35;15.57;;;14.13;;
18407;SDS011;9330;52.210;21.174;2023-08-20T04:40:05;15.50;;;14.20;;
18407;SDS011;9330;52.210;21.174;2023-08-20T04:42:33;15.40;;;14.00;;
18407;SDS011;9330;52.210;21.174;2023-08-20T04:45:00;15.73;;;14.30;;
18407;SDS011;9330;52.210;21.174;2023-08-20T04:47:26;15.70;;;14.20;;
18407;SDS011;9330;52.210;21.174;2023-08-20T04:49:54;15.10;;;13.80;;
18407;SDS011;9330;52.210;21.174;2023-08-20T04:52:20;15.50;;;14.20;;
18407;SDS011;9330;52.210;21.174;2023-08-20T04:54:49;15.90;;;14.50;;
18407;SDS011;9330;52.210;21.174;2023-08-20T04:57:15;15.48;;;14.15;;
18407;SDS011;9330;52.210;21.174;2023-08-20T04:59:42;15.80;;;14.50;;
18407;SDS011;9330;52.210;21.174;2023-08-20T05:02:10;15.68;;;14.27;;
18407;SDS011;9330;52.210;21.174;2023-08-20T05:04:37;14.80;;;13.60;;
18407;SDS011;9330;52.210;21.174;2023-08-20T05:07:05;15.20;;;13.98;;
18407;SDS011;9330;52.210;21.174;2023-08-20T05:09:34;16.63;;;15.18;;
18407;SDS011;9330;52.210;21.174;2023-08-20T05:12:06;15.55;;;14.15;;
18407;SDS011;9330;52.210;21.174;2023-08-20T05:14:34;16.23;;;14.73;;
18407;SDS011;9330;52.210;21.174;2023-08-20T05:17:01;17.98;;;16.10;;
18407;SDS011;9330;52.210;21.174;2023-08-20T05:19:29;16.55;;;15.15;;
18407;SDS011;9330;52.210;21.174;2023-08-20T05:21:56;16.40;;;14.82;;
18407;SDS011;9330;52.210;21.174;2023-08-20T05:24:24;15.93;;;14.48;;
18407;SDS011;9330;52.210;21.174;2023-08-20T05:27:03;15.60;;;14.05;;
18407;SDS011;9330;52.210;21.174;2023-08-20T05:29:33;16.65;;;15.20;;
18407;SDS011;9330;52.210;21.174;2023-08-20T05:32:00;16.33;;;14.88;;
18407;SDS011;9330;52.210;21.174;2023-08-20T05:34:27;16.77;;;15.38;;
18407;SDS011;9330;52.210;21.174;2023-08-20T05:36:54;16.33;;;14.93;;
18407;SDS011;9330;52.210;21.174;2023-08-20T05:39:22;17.17;;;15.57;;
18407;SDS011;9330;52.210;21.174;2023-08-20T05:41:50;16.42;;;15.02;;
18407;SDS011;9330;52.210;21.174;2023-08-20T05:44:18;16.23;;;14.80;;
18407;SDS011;9330;52.210;21.174;2023-08-20T05:46:45;16.70;;;15.30;;
18407;SDS011;9330;52.210;21.174;2023-08-20T05:49:12;17.08;;;15.65;;
18407;SDS011;9330;52.210;21.174;2023-08-20T05:51:40;16.27;;;14.93;;
18407;SDS011;9330;52.210;21.174;2023-08-20T05:54:08;16.75;;;15.32;;
18407;SDS011;9330;52.210;21.174;2023-08-20T05:56:34;17.63;;;16.13;;
18407;SDS011;9330;52.210;21.174;2023-08-20T05:59:01;17.50;;;16.00;;
18407;SDS011;9330;52.210;21.174;2023-08-20T06:01:30;17.95;;;16.35;;
18407;SDS011;9330;52.210;21.174;2023-08-20T06:03:57;16.52;;;15.18;;
18407;SDS011;9330;52.210;21.174;2023-08-20T06:06:25;16.75;;;15.15;;
18407;SDS011;9330;52.210;21.174;2023-08-20T06:08:52;17.05;;;15.65;;
18407;SDS011;9330;52.210;21.174;2023-08-20T06:11:19;15.48;;;14.18;;
18407;SDS011;9330;52.210;21.174;2023-08-20T06:13:46;15.25;;;14.05;;
18407;SDS011;9330;52.210;21.174;2023-08-20T06:16:16;16.27;;;14.80;;
18407;SDS011;9330;52.210;21.174;2023-08-20T06:18:44;16.55;;;15.23;;
18407;SDS011;9330;52.210;21.174;2023-08-20T06:21:11;16.13;;;14.82;;
18407;SDS011;9330;52.210;21.174;2023-08-20T06:23:38;15.98;;;14.57;;
18407;SDS011;9330;52.210;21.174;2023-08-20T06:26:05;15.77;;;14.38;;
18407;SDS011;9330;52.210;21.174;2023-08-20T06:28:32;16.63;;;15.18;;
18407;SDS011;9330;52.210;21.174;2023-08-20T06:30:58;15.60;;;14.30;;
18407;SDS011;9330;52.210;21.174;2023-08-20T06:33:25;14.20;;;13.00;;
18407;SDS011;9330;52.210;21.174;2023-08-20T06:35:54;14.90;;;13.70;;
18407;SDS011;9330;52.210;21.174;2023-08-20T06:38:20;13.75;;;12.55;;
18407;SDS011;9330;52.210;21.174;2023-08-20T06:40:49;13.43;;;12.13;;
18407;SDS011;9330;52.210;21.174;2023-08-20T06:43:16;16.65;;;15.20;;
18407;SDS011;9330;52.210;21.174;2023-08-20T06:45:43;14.35;;;13.15;;
18407;SDS011;9330;52.210;21.174;2023-08-20T06:48:10;15.45;;;14.07;;
18407;SDS011;9330;52.210;21.174;2023-08-20T06:50:37;13.90;;;12.80;;
18407;SDS011;9330;52.210;21.174;2023-08-20T06:53:05;13.73;;;12.63;;
18407;SDS011;9330;52.210;21.174;2023-08-20T06:55:32;14.18;;;12.90;;
18407;SDS011;9330;52.210;21.174;2023-08-20T06:58:00;13.48;;;12.13;;
18407;SDS011;9330;52.210;21.174;2023-08-20T07:00:26;13.65;;;12.55;;
18407;SDS011;9330;52.210;21.174;2023-08-20T07:02:53;12.95;;;11.93;;
18407;SDS011;9330;52.210;21.174;2023-08-20T07:05:22;11.68;;;10.68;;
18407;SDS011;9330;52.210;21.174;2023-08-20T07:07:49;12.23;;;11.15;;
18407;SDS011;9330;52.210;21.174;2023-08-20T07:10:17;12.35;;;11.25;;
18407;SDS011;9330;52.210;21.174;2023-08-20T07:12:44;12.27;;;11.18;;
18407;SDS011;9330;52.210;21.174;2023-08-20T07:15:11;13.63;;;12.52;;
18407;SDS011;9330;52.210;21.174;2023-08-20T07:17:38;12.00;;;11.07;;
18407;SDS011;9330;52.210;21.174;2023-08-20T07:20:05;11.45;;;10.52;;
18407;SDS011;9330;52.210;21.174;2023-08-20T07:22:33;11.40;;;10.43;;
18407;SDS011;9330;52.210;21.174;2023-08-20T07:25:00;11.40;;;10.40;;
18407;SDS011;9330;52.210;21.174;2023-08-20T07:27:28;11.55;;;10.65;;
18407;SDS011;9330;52.210;21.174;2023-08-20T07:29:55;10.90;;;10.02;;
18407;SDS011;9330;52.210;21.174;2023-08-20T07:32:22;10.98;;;10.05;;
18407;SDS011;9330;52.210;21.174;2023-08-20T07:34:49;11.48;;;10.48;;
18407;SDS011;9330;52.210;21.174;2023-08-20T07:37:16;15.82;;;10.30;;
18407;SDS011;9330;52.210;21.174;2023-08-20T07:39:43;11.05;;;10.15;;
18407;SDS011;9330;52.210;21.174;2023-08-20T07:42:10;10.80;;;9.90;;
18407;SDS011;9330;52.210;21.174;2023-08-20T07:44:38;10.70;;;9.82;;
18407;SDS011;9330;52.210;21.174;2023-08-20T07:47:05;10.88;;;9.98;;
18407;SDS011;9330;52.210;21.174;2023-08-20T07:49:32;11.63;;;10.65;;
18407;SDS011;9330;52.210;21.174;2023-08-20T07:51:59;11.35;;;10.35;;
18407;SDS011;9330;52.210;21.174;2023-08-20T07:54:26;10.77;;;9.98;;
18407;SDS011;9330;52.210;21.174;2023-08-20T07:56:54;10.98;;;10.07;;
18407;SDS011;9330;52.210;21.174;2023-08-20T07:59:21;10.57;;;9.68;;
18407;SDS011;9330;52.210;21.174;2023-08-20T08:01:49;9.82;;;9.02;;
18407;SDS011;9330;52.210;21.174;2023-08-20T08:04:16;9.52;;;8.73;;
18407;SDS011;9330;52.210;21.174;2023-08-20T08:06:43;9.63;;;8.90;;
18407;SDS011;9330;52.210;21.174;2023-08-20T08:09:17;10.13;;;9.32;;
18407;SDS011;9330;52.210;21.174;2023-08-20T08:11:46;10.15;;;9.23;;
18407;SDS011;9330;52.210;21.174;2023-08-20T08:14:13;9.70;;;8.90;;
18407;SDS011;9330;52.210;21.174;2023-08-20T08:16:40;9.95;;;9.10;;
18407;SDS011;9330;52.210;21.174;2023-08-20T08:19:08;9.43;;;8.63;;
18407;SDS011;9330;52.210;21.174;2023-08-20T08:21:35;9.32;;;8.52;;
18407;SDS011;9330;52.210;21.174;2023-08-20T08:24:02;10.10;;;9.20;;
18407;SDS011;9330;52.210;21.174;2023-08-20T08:26:30;9.15;;;8.35;;
18407;SDS011;9330;52.210;21.174;2023-08-20T08:29:00;8.80;;;8.10;;
18407;SDS011;9330;52.210;21.174;2023-08-20T08:31:27;9.10;;;8.20;;
18407;SDS011;9330;52.210;21.174;2023-08-20T08:33:54;9.20;;;8.40;;
18407;SDS011;9330;52.210;21.174;2023-08-20T08:36:23;9.50;;;8.60;;
18407;SDS011;9330;52.210;21.174;2023-08-20T08:38:51;8.75;;;8.05;;
18407;SDS011;9330;52.210;21.174;2023-08-20T08:41:18;9.63;;;8.73;;
18407;SDS011;9330;52.210;21.174;2023-08-20T08:43:48;9.55;;;8.75;;
18407;SDS011;9330;52.210;21.174;2023-08-20T08:46:15;9.27;;;8.57;;
18407;SDS011;9330;52.210;21.174;2023-08-20T08:48:43;9.02;;;8.32;;
18407;SDS011;9330;52.210;21.174;2023-08-20T08:51:11;8.88;;;8.07;;
18407;SDS011;9330;52.210;21.174;2023-08-20T08:53:39;9.27;;;8.38;;
18407;SDS011;9330;52.210;21.174;2023-08-20T08:56:08;9.55;;;8.65;;
18407;SDS011;9330;52.210;21.174;2023-08-20T08:58:35;8.75;;;7.95;;
18407;SDS011;9330;52.210;21.174;2023-08-20T09:01:02;8.65;;;7.95;;
18407;SDS011;9330;52.210;21.174;2023-08-20T09:03:29;9.88;;;9.07;;
18407;SDS011;9330;52.210;21.174;2023-08-20T09:05:57;8.82;;;8.05;;
18407;SDS011;9330;52.210;21.174;2023-08-20T09:08:26;10.35;;;9.20;;
18407;SDS011;9330;52.210;21.174;2023-08-20T09:10:55;10.00;;;9.25;;
18407;SDS011;9330;52.210;21.174;2023-08-20T09:13:23;10.38;;;9.43;;
18407;SDS011;9330;52.210;21.174;2023-08-20T09:15:51;9.73;;;8.93;;
18407;SDS011;9330;52.210;21.174;2023-08-20T09:18:18;9.85;;;9.00;;
18407;SDS011;9330;52.210;21.174;2023-08-20T09:20:47;10.13;;;9.15;;
18407;SDS011;9330;52.210;21.174;2023-08-20T09:23:15;10.20;;;9.32;;
18407;SDS011;9330;52.210;21.174;2023-08-20T09:25:43;10.02;;;9.23;;
18407;SDS011;9330;52.210;21.174;2023-08-20T09:28:11;10.70;;;9.90;;
18407;SDS011;9330;52.210;21.174;2023-08-20T09:30:38;9.43;;;8.63;;
18407;SDS011;9330;52.210;21.174;2023-08-20T09:33:07;10.73;;;9.82;;
18407;SDS011;9330;52.210;21.174;2023-08-20T09:35:36;9.85;;;8.95;;
18407;SDS011;9330;52.210;21.174;2023-08-20T09:38:03;9.18;;;8.48;;
18407;SDS011;9330;52.210;21.174;2023-08-20T09:40:31;10.00;;;9.10;;
18407;SDS011;9330;52.210;21.174;2023-08-20T09:42:58;9.30;;;8.60;;
18407;SDS011;9330;52.210;21.174;2023-08-20T09:45:28;9.63;;;8.85;;
18407;SDS011;9330;52.210;21.174;2023-08-20T09:47:55;9.85;;;8.95;;
18407;SDS011;9330;52.210;21.174;2023-08-20T09:50:26;9.70;;;8.98;;
18407;SDS011;9330;52.210;21.174;2023-08-20T09:53:04;8.95;;;8.25;;
18407;SDS011;9330;52.210;21.174;2023-08-20T09:55:33;9.10;;;8.40;;
18407;SDS011;9330;52.210;21.174;2023-08-20T09:58:02;9.13;;;8.32;;
18407;SDS011;9330;52.210;21.174;2023-08-20T10:00:30;9.13;;;8.43;;
18407;SDS011;9330;52.210;21.174;2023-08-20T10:02:58;9.35;;;8.45;;
18407;SDS011;9330;52.210;21.174;2023-08-20T10:05:26;9.23;;;8.43;;
18407;SDS011;9330;52.210;21.174;2023-08-20T10:07:53;8.65;;;8.02;;
18407;SDS011;9330;52.210;21.174;2023-08-20T10:10:21;8.70;;;8.00;;
18407;SDS011;9330;52.210;21.174;2023-08-20T10:12:48;9.00;;;8.30;;
18407;SDS011;9330;52.210;21.174;2023-08-20T10:15:15;11.38;;;8.88;;
18407;SDS011;9330;52.210;21.174;2023-08-20T10:17:44;9.70;;;8.90;;
18407;SDS011;9330;52.210;21.174;2023-08-20T10:20:12;9.32;;;8.43;;
18407;SDS011;9330;52.210;21.174;2023-08-20T10:22:42;8.80;;;8.10;;
18407;SDS011;9330;52.210;21.174;2023-08-20T10:25:11;8.77;;;8.07;;
18407;SDS011;9330;52.210;21.174;2023-08-20T10:27:40;8.77;;;8.10;;
18407;SDS011;9330;52.210;21.174;2023-08-20T10:30:08;9.35;;;8.55;;
18407;SDS011;9330;52.210;21.174;2023-08-20T10:32:47;9.60;;;8.80;;
18407;SDS011;9330;52.210;21.174;2023-08-20T10:35:18;9.98;;;9.15;;
18407;SDS011;9330;52.210;21.174;2023-08-20T10:38:01;9.63;;;8.82;;
18407;SDS011;9330;52.210;21.174;2023-08-20T10:43:26;8.95;;;8.25;;
18407;SDS011;9330;52.210;21.174;2023-08-20T10:46:01;8.68;;;8.02;;
18407;SDS011;9330;52.210;21.174;2023-08-20T10:48:34;8.55;;;7.85;;
18407;SDS011;9330;52.210;21.174;2023-08-20T10:51:12;9.18;;;8.23;;
18407;SDS011;9330;52.210;21.174;2023-08-20T10:53:41;8.90;;;8.20;;
18407;SDS011;9330;52.210;21.174;2023-08-20T10:56:13;8.73;;;8.00;;
18407;SDS011;9330;52.210;21.174;2023-08-20T10:58:41;9.13;;;8.38;;
18407;SDS011;9330;52.210;21.174;2023-08-20T11:01:20;9.15;;;8.35;;
18407;SDS011;9330;52.210;21.174;2023-08-20T11:03:50;9.27;;;8.43;;
18407;SDS011;9330;52.210;21.174;2023-08-20T11:06:17;8.05;;;7.20;;
18407;SDS011;9330;52.210;21.174;2023-08-20T11:08:46;8.65;;;7.88;;
18407;SDS011;9330;52.210;21.174;2023-08-20T11:11:13;7.97;;;7.38;;
18407;SDS011;9330;52.210;21.174;2023-08-20T11:13:41;8.57;;;7.85;;
18407;SDS011;9330;52.210;21.174;2023-08-20T11:16:08;7.60;;;7.00;;
18407;SDS011;9330;52.210;21.174;2023-08-20T11:18:36;8.95;;;8.25;;
18407;SDS011;9330;52.210;21.174;2023-08-20T11:21:04;8.82;;;8.07;;
18407;SDS011;9330;52.210;21.174;2023-08-20T11:23:31;8.70;;;8.00;;
18407;SDS011;9330;52.210;21.174;2023-08-20T11:25:59;8.27;;;7.68;;
18407;SDS011;9330;52.210;21.174;2023-08-20T11:28:27;8.43;;;7.72;;
18407;SDS011;9330;52.210;21.174;2023-08-20T11:30:55;8.65;;;7.95;;
18407;SDS011;9330;52.210;21.174;2023-08-20T11:33:22;8.10;;;7.50;;
18407;SDS011;9330;52.210;21.174;2023-08-20T11:35:51;10.30;;;7.53;;
18407;SDS011;9330;52.210;21.174;2023-08-20T11:38:23;8.45;;;7.75;;
18407;SDS011;9330;52.210;21.174;2023-08-20T11:40:52;7.65;;;6.97;;
18407;SDS011;9330;52.210;21.174;2023-08-20T11:43:18;8.52;;;7.82;;
18407;SDS011;9330;52.210;21.174;2023-08-20T11:45:46;8.10;;;7.40;;
18407;SDS011;9330;52.210;21.174;2023-08-20T11:48:13;8.18;;;7.53;;
18407;SDS011;9330;52.210;21.174;2023-08-20T11:50:41;8.32;;;7.63;;
18407;SDS011;9330;52.210;21.174;2023-08-20T11:53:08;8.65;;;8.05;;
18407;SDS011;9330;52.210;21.174;2023-08-20T11:55:37;8.23;;;7.60;;
18407;SDS011;9330;52.210;21.174;2023-08-20T11:58:05;8.57;;;7.95;;
18407;SDS011;9330;52.210;21.174;2023-08-20T12:00:41;8.20;;;7.50;;
18407;SDS011;9330;52.210;21.174;2023-08-20T12:03:09;7.68;;;7.07;;
18407;SDS011;9330;52.210;21.174;2023-08-20T12:05:41;8.68;;;7.97;;
18407;SDS011;9330;52.210;21.174;2023-08-20T12:08:14;8.48;;;7.70;;
18407;SDS011;9330;52.210;21.174;2023-08-20T12:10:44;8.70;;;7.95;;
18407;SDS011;9330;52.210;21.174;2023-08-20T12:13:10;7.95;;;7.35;;
18407;SDS011;9330;52.210;21.174;2023-08-20T12:15:39;9.10;;;8.40;;
18407;SDS011;9330;52.210;21.174;2023-08-20T12:18:06;8.98;;;8.23;;
18407;SDS011;9330;52.210;21.174;2023-08-20T12:20:34;8.90;;;8.30;;
18407;SDS011;9330;52.210;21.174;2023-08-20T12:23:06;8.10;;;7.40;;
18407;SDS011;9330;52.210;21.174;2023-08-20T12:25:35;8.18;;;7.53;;
18407;SDS011;9330;52.210;21.174;2023-08-20T12:28:04;9.18;;;8.30;;
18407;SDS011;9330;52.210;21.174;2023-08-20T12:30:33;9.23;;;8.50;;
18407;SDS011;9330;52.210;21.174;2023-08-20T12:33:00;7.70;;;7.10;;
18407;SDS011;9330;52.210;21.174;2023-08-20T12:35:28;8.38;;;7.78;;
18407;SDS011;9330;52.210;21.174;2023-08-20T12:37:55;8.52;;;7.82;;
18407;SDS011;9330;52.210;21.174;2023-08-20T12:40:22;9.13;;;8.43;;
18407;SDS011;9330;52.210;21.174;2023-08-20T12:42:49;8.60;;;7.97;;
18407;SDS011;9330;52.210;21.174;2023-08-20T12:45:17;8.70;;;7.95;;
18407;SDS011;9330;52.210;21.174;2023-08-20T12:47:44;8.10;;;7.53;;
18407;SDS011;9330;52.210;21.174;2023-08-20T12:50:11;9.05;;;8.30;;
18407;SDS011;9330;52.210;21.174;2023-08-20T12:52:39;9.18;;;8.38;;
18407;SDS011;9330;52.210;21.174;2023-08-20T12:55:06;9.60;;;8.90;;
18407;SDS011;9330;52.210;21.174;2023-08-20T12:57:34;9.25;;;8.45;;
18407;SDS011;9330;52.210;21.174;2023-08-20T13:00:01;10.10;;;9.30;;
18407;SDS011;9330;52.210;21.174;2023-08-20T13:02:34;9.88;;;9.07;;
18407;SDS011;9330;52.210;21.174;2023-08-20T13:05:01;10.05;;;9.00;;
18407;SDS011;9330;52.210;21.174;2023-08-20T13:07:30;9.85;;;9.15;;
18407;SDS011;9330;52.210;21.174;2023-08-20T13:09:57;10.43;;;9.63;;
18407;SDS011;9330;52.210;21.174;2023-08-20T13:12:25;10.52;;;9.63;;
18407;SDS011;9330;52.210;21.174;2023-08-20T13:14:54;10.77;;;9.98;;
18407;SDS011;9330;52.210;21.174;2023-08-20T13:17:21;11.43;;;10.63;;
18407;SDS011;9330;52.210;21.174;2023-08-20T13:19:50;10.75;;;9.95;;
18407;SDS011;9330;52.210;21.174;2023-08-20T13:22:20;10.85;;;9.95;;
18407;SDS011;9330;52.210;21.174;2023-08-20T13:24:47;10.95;;;10.15;;
18407;SDS011;9330;52.210;21.174;2023-08-20T13:27:14;10.88;;;10.07;;
18407;SDS011;9330;52.210;21.174;2023-08-20T13:29:41;11.00;;;10.20;;
18407;SDS011;9330;52.210;21.174;2023-08-20T13:32:07;11.18;;;10.27;;
18407;SDS011;9330;52.210;21.174;2023-08-20T13:34:37;11.25;;;10.30;;
18407;SDS011;9330;52.210;21.174;2023-08-20T13:37:05;11.05;;;10.15;;
18407;SDS011;9330;52.210;21.174;2023-08-20T13:39:32;11.40;;;10.40;;
18407;SDS011;9330;52.210;21.174;2023-08-20T13:41:59;10.50;;;9.45;;
18407;SDS011;9330;52.210;21.174;2023-08-20T13:44:26;11.57;;;10.43;;
18407;SDS011;9330;52.210;21.174;2023-08-20T13:46:52;10.55;;;9.63;;
18407;SDS011;9330;52.210;21.174;2023-08-20T13:49:19;10.85;;;9.90;;
18407;SDS011;9330;52.210;21.174;2023-08-20T13:51:46;10.20;;;9.40;;
18407;SDS011;9330;52.210;21.174;2023-08-20T13:54:14;9.45;;;8.75;;
18407;SDS011;9330;52.210;21.174;2023-08-20T13:56:41;9.38;;;8.57;;
18407;SDS011;9330;52.210;21.174;2023-08-20T13:59:08;9.55;;;8.68;;
18407;SDS011;9330;52.210;21.174;2023-08-20T14:01:35;10.13;;;9.40;;
18407;SDS011;9330;52.210;21.174;2023-08-20T14:04:02;9.38;;;8.68;;
18407;SDS011;9330;52.210;21.174;2023-08-20T14:06:30;9.15;;;8.25;;
18407;SDS011;9330;52.210;21.174;2023-08-20T14:08:56;9.77;;;8.88;;
18407;SDS011;9330;52.210;21.174;2023-08-20T14:11:25;9.82;;;8.93;;
18407;SDS011;9330;52.210;21.174;2023-08-20T14:13:52;9.18;;;8.48;;
18407;SDS011;9330;52.210;21.174;2023-08-20T14:16:18;9.70;;;9.00;;
18407;SDS011;9330;52.210;21.174;2023-08-20T14:18:45;9.85;;;9.13;;
18407;SDS011;9330;52.210;21.174;2023-08-20T14:21:12;8.63;;;7.93;;
18407;SDS011;9330;52.210;21.174;2023-08-20T14:23:39;10.30;;;8.85;;
18407;SDS011;9330;52.210;21.174;2023-08-20T14:26:06;9.55;;;8.75;;
18407;SDS011;9330;52.210;21.174;2023-08-20T14:28:34;9.75;;;8.85;;
18407;SDS011;9330;52.210;21.174;2023-08-20T14:31:01;9.68;;;8.95;;
18407;SDS011;9330;52.210;21.174;2023-08-20T14:33:29;9.27;;;8.57;;
18407;SDS011;9330;52.210;21.174;2023-08-20T14:35:56;9.30;;;8.60;;
18407;SDS011;9330;52.210;21.174;2023-08-20T14:38:23;9.18;;;8.48;;
18407;SDS011;9330;52.210;21.174;2023-08-20T14:40:49;9.23;;;8.52;;